sensor_id;sensor_type;location;lat;lon;timestamp;temperature;humidity
24217;DHT22;12356;49.386;8.688;2022-12-18T00:01:46;-4.30;31.50
24217;DHT22;12356;49.386;8.688;2022-12-18T00:04:24;-4.40;30.50
24217;DHT22;12356;49.386;8.688;2022-12-18T00:06:55;-4.30;30.60
24217;DHT22;12356;49.386;8.688;2022-12-18T00:09:25;-4.20;30.40
24217;DHT22;12356;49.386;8.688;2022-12-18T00:11:56;-4.20;30.60
24217;DHT22;12356;49.386;8.688;2022-12-18T00:14:27;-4.20;30.40
24217;DHT22;12356;49.386;8.688;2022-12-18T00:16:57;-4.10;30.20
24217;DHT22;12356;49.386;8.688;2022-12-18T00:19:30;-4.00;30.30
24217;DHT22;12356;49.386;8.688;2022-12-18T00:22:01;-4.00;30.00
24217;DHT22;12356;49.386;8.688;2022-12-18T00:24:32;-4.00;29.60
24217;DHT22;12356;49.386;8.688;2022-12-18T00:27:02;-4.00;29.60
24217;DHT22;12356;49.386;8.688;2022-12-18T00:29:33;-3.90;29.20
24217;DHT22;12356;49.386;8.688;2022-12-18T00:32:04;-4.00;29.30
24217;DHT22;12356;49.386;8.688;2022-12-18T00:34:34;-4.00;29.00
24217;DHT22;12356;49.386;8.688;2022-12-18T00:37:05;-4.00;29.30
24217;DHT22;12356;49.386;8.688;2022-12-18T00:39:36;-4.00;29.50
24217;DHT22;12356;49.386;8.688;2022-12-18T00:42:08;-4.10;29.20
24217;DHT22;12356;49.386;8.688;2022-12-18T00:44:59;-4.10;29.60
24217;DHT22;12356;49.386;8.688;2022-12-18T00:47:29;-4.00;29.80
24217;DHT22;12356;49.386;8.688;2022-12-18T00:50:00;-4.00;29.30
24217;DHT22;12356;49.386;8.688;2022-12-18T00:52:31;-4.10;29.20
24217;DHT22;12356;49.386;8.688;2022-12-18T00:55:01;-4.10;29.80
24217;DHT22;12356;49.386;8.688;2022-12-18T00:57:32;-4.00;29.90
24217;DHT22;12356;49.386;8.688;2022-12-18T01:00:04;-4.00;29.80
24217;DHT22;12356;49.386;8.688;2022-12-18T01:02:36;-3.90;29.60
24217;DHT22;12356;49.386;8.688;2022-12-18T01:05:08;-3.90;29.40
24217;DHT22;12356;49.386;8.688;2022-12-18T01:07:39;-3.90;29.70
24217;DHT22;12356;49.386;8.688;2022-12-18T01:10:11;-4.00;29.70
24217;DHT22;12356;49.386;8.688;2022-12-18T01:12:43;-4.00;29.90
24217;DHT22;12356;49.386;8.688;2022-12-18T01:15:14;-4.00;29.80
24217;DHT22;12356;49.386;8.688;2022-12-18T01:17:45;-4.00;29.80
24217;DHT22;12356;49.386;8.688;2022-12-18T01:20:16;-4.00;29.90
24217;DHT22;12356;49.386;8.688;2022-12-18T01:22:46;-4.00;29.90
24217;DHT22;12356;49.386;8.688;2022-12-18T01:25:17;-4.00;30.20
24217;DHT22;12356;49.386;8.688;2022-12-18T01:27:48;-4.00;29.80
24217;DHT22;12356;49.386;8.688;2022-12-18T01:30:18;-4.00;29.80
24217;DHT22;12356;49.386;8.688;2022-12-18T01:32:49;-4.00;29.80
24217;DHT22;12356;49.386;8.688;2022-12-18T01:35:19;-4.00;29.90
24217;DHT22;12356;49.386;8.688;2022-12-18T01:37:54;-4.00;29.90
24217;DHT22;12356;49.386;8.688;2022-12-18T01:40:26;-4.00;30.00
24217;DHT22;12356;49.386;8.688;2022-12-18T01:42:57;-3.90;30.50
24217;DHT22;12356;49.386;8.688;2022-12-18T01:45:30;-3.90;30.00
24217;DHT22;12356;49.386;8.688;2022-12-18T01:48:06;-3.90;29.70
24217;DHT22;12356;49.386;8.688;2022-12-18T01:50:40;-3.90;29.70
24217;DHT22;12356;49.386;8.688;2022-12-18T01:53:20;-3.80;29.20
24217;DHT22;12356;49.386;8.688;2022-12-18T01:55:55;-3.90;29.20
24217;DHT22;12356;49.386;8.688;2022-12-18T01:59:01;-4.00;29.50
24217;DHT22;12356;49.386;8.688;2022-12-18T02:01:32;-4.00;30.00
24217;DHT22;12356;49.386;8.688;2022-12-18T02:04:22;-4.00;30.30
24217;DHT22;12356;49.386;8.688;2022-12-18T02:10:08;-4.10;29.30
24217;DHT22;12356;49.386;8.688;2022-12-18T02:15:44;-4.00;29.40
24217;DHT22;12356;49.386;8.688;2022-12-18T02:18:25;-4.10;29.10
24217;DHT22;12356;49.386;8.688;2022-12-18T02:26:37;-4.40;30.00
24217;DHT22;12356;49.386;8.688;2022-12-18T02:29:29;-4.40;30.00
24217;DHT22;12356;49.386;8.688;2022-12-18T02:32:04;-4.30;30.00
24217;DHT22;12356;49.386;8.688;2022-12-18T02:34:38;-4.20;30.30
24217;DHT22;12356;49.386;8.688;2022-12-18T02:37:12;-4.20;30.00
24217;DHT22;12356;49.386;8.688;2022-12-18T02:39:45;-4.20;29.50
24217;DHT22;12356;49.386;8.688;2022-12-18T02:42:18;-4.20;29.30
24217;DHT22;12356;49.386;8.688;2022-12-18T02:44:51;-4.20;29.10
24217;DHT22;12356;49.386;8.688;2022-12-18T02:47:23;-4.20;29.00
24217;DHT22;12356;49.386;8.688;2022-12-18T02:50:56;-4.20;29.10
24217;DHT22;12356;49.386;8.688;2022-12-18T02:53:22;-4.20;29.00
24217;DHT22;12356;49.386;8.688;2022-12-18T02:56:31;-4.20;29.30
24217;DHT22;12356;49.386;8.688;2022-12-18T02:59:09;-4.20;29.30
24217;DHT22;12356;49.386;8.688;2022-12-18T03:02:04;-4.20;28.80
24217;DHT22;12356;49.386;8.688;2022-12-18T03:07:46;-4.10;28.60
24217;DHT22;12356;49.386;8.688;2022-12-18T03:10:20;-4.10;28.40
24217;DHT22;12356;49.386;8.688;2022-12-18T03:12:58;-4.20;28.20
24217;DHT22;12356;49.386;8.688;2022-12-18T03:15:43;-4.10;28.50
24217;DHT22;12356;49.386;8.688;2022-12-18T03:18:23;-4.10;28.40
24217;DHT22;12356;49.386;8.688;2022-12-18T03:20:58;-4.20;28.50
24217;DHT22;12356;49.386;8.688;2022-12-18T03:23:35;-4.20;29.00
24217;DHT22;12356;49.386;8.688;2022-12-18T03:26:10;-4.20;28.70
24217;DHT22;12356;49.386;8.688;2022-12-18T03:28:52;-4.20;28.60
24217;DHT22;12356;49.386;8.688;2022-12-18T03:31:26;-4.10;29.20
24217;DHT22;12356;49.386;8.688;2022-12-18T03:34:01;-4.10;29.00
24217;DHT22;12356;49.386;8.688;2022-12-18T03:36:35;-4.10;28.40
24217;DHT22;12356;49.386;8.688;2022-12-18T03:39:05;-4.20;29.10
24217;DHT22;12356;49.386;8.688;2022-12-18T03:53:18;-4.00;27.90
24217;DHT22;12356;49.386;8.688;2022-12-18T03:55:53;-4.00;27.30
24217;DHT22;12356;49.386;8.688;2022-12-18T03:58:25;-4.00;27.60
24217;DHT22;12356;49.386;8.688;2022-12-18T04:00:59;-4.00;28.00
24217;DHT22;12356;49.386;8.688;2022-12-18T04:03:32;-4.10;28.20
24217;DHT22;12356;49.386;8.688;2022-12-18T04:06:05;-4.00;27.90
24217;DHT22;12356;49.386;8.688;2022-12-18T04:08:36;-4.00;28.20
24217;DHT22;12356;49.386;8.688;2022-12-18T04:11:09;-3.90;27.70
24217;DHT22;12356;49.386;8.688;2022-12-18T04:13:42;-4.00;27.00
24217;DHT22;12356;49.386;8.688;2022-12-18T04:16:12;-4.00;27.00
24217;DHT22;12356;49.386;8.688;2022-12-18T04:18:43;-4.00;27.00
24217;DHT22;12356;49.386;8.688;2022-12-18T04:21:14;-4.00;27.00
24217;DHT22;12356;49.386;8.688;2022-12-18T04:23:44;-4.10;26.60
24217;DHT22;12356;49.386;8.688;2022-12-18T04:26:15;-4.10;27.00
24217;DHT22;12356;49.386;8.688;2022-12-18T04:28:46;-4.10;27.00
24217;DHT22;12356;49.386;8.688;2022-12-18T04:31:16;-4.10;26.60
24217;DHT22;12356;49.386;8.688;2022-12-18T04:33:47;-4.20;26.80
24217;DHT22;12356;49.386;8.688;2022-12-18T04:36:17;-4.30;27.00
24217;DHT22;12356;49.386;8.688;2022-12-18T04:38:48;-4.30;27.60
24217;DHT22;12356;49.386;8.688;2022-12-18T04:41:19;-4.30;27.60
24217;DHT22;12356;49.386;8.688;2022-12-18T04:43:49;-4.30;27.80
24217;DHT22;12356;49.386;8.688;2022-12-18T04:46:20;-4.30;27.80
24217;DHT22;12356;49.386;8.688;2022-12-18T04:48:51;-4.30;27.90
24217;DHT22;12356;49.386;8.688;2022-12-18T04:51:22;-4.30;28.00
24217;DHT22;12356;49.386;8.688;2022-12-18T04:53:53;-4.30;28.40
24217;DHT22;12356;49.386;8.688;2022-12-18T04:56:23;-4.20;28.50
24217;DHT22;12356;49.386;8.688;2022-12-18T04:58:54;-4.20;28.40
24217;DHT22;12356;49.386;8.688;2022-12-18T05:01:25;-4.20;28.20
24217;DHT22;12356;49.386;8.688;2022-12-18T05:03:55;-4.20;28.30
24217;DHT22;12356;49.386;8.688;2022-12-18T05:06:26;-4.20;28.20
24217;DHT22;12356;49.386;8.688;2022-12-18T05:08:56;-4.10;28.50
24217;DHT22;12356;49.386;8.688;2022-12-18T05:11:27;-4.10;28.30
24217;DHT22;12356;49.386;8.688;2022-12-18T05:13:58;-4.10;28.40
24217;DHT22;12356;49.386;8.688;2022-12-18T05:16:28;-4.10;28.30
24217;DHT22;12356;49.386;8.688;2022-12-18T05:18:59;-4.10;27.90
24217;DHT22;12356;49.386;8.688;2022-12-18T05:21:30;-4.00;28.40
24217;DHT22;12356;49.386;8.688;2022-12-18T05:24:00;-4.00;28.20
24217;DHT22;12356;49.386;8.688;2022-12-18T05:26:31;-3.90;28.00
24217;DHT22;12356;49.386;8.688;2022-12-18T05:29:02;-4.00;27.50
24217;DHT22;12356;49.386;8.688;2022-12-18T05:31:32;-4.10;27.60
24217;DHT22;12356;49.386;8.688;2022-12-18T05:34:03;-4.10;27.90
24217;DHT22;12356;49.386;8.688;2022-12-18T05:36:34;-4.20;27.30
24217;DHT22;12356;49.386;8.688;2022-12-18T05:39:05;-4.20;27.50
24217;DHT22;12356;49.386;8.688;2022-12-18T05:41:36;-4.20;27.70
24217;DHT22;12356;49.386;8.688;2022-12-18T05:44:07;-4.30;27.40
24217;DHT22;12356;49.386;8.688;2022-12-18T05:46:37;-4.30;27.90
24217;DHT22;12356;49.386;8.688;2022-12-18T05:49:08;-4.30;28.10
24217;DHT22;12356;49.386;8.688;2022-12-18T05:51:39;-4.30;27.80
24217;DHT22;12356;49.386;8.688;2022-12-18T05:54:10;-4.40;28.00
24217;DHT22;12356;49.386;8.688;2022-12-18T05:56:41;-4.30;28.50
24217;DHT22;12356;49.386;8.688;2022-12-18T05:59:12;-4.30;28.50
24217;DHT22;12356;49.386;8.688;2022-12-18T06:01:42;-4.30;28.50
24217;DHT22;12356;49.386;8.688;2022-12-18T06:04:13;-4.30;28.60
24217;DHT22;12356;49.386;8.688;2022-12-18T06:06:44;-4.20;28.60
24217;DHT22;12356;49.386;8.688;2022-12-18T06:09:14;-4.30;28.20
24217;DHT22;12356;49.386;8.688;2022-12-18T06:11:45;-4.30;28.50
24217;DHT22;12356;49.386;8.688;2022-12-18T06:14:16;-4.30;28.40
24217;DHT22;12356;49.386;8.688;2022-12-18T06:16:47;-4.30;28.80
24217;DHT22;12356;49.386;8.688;2022-12-18T06:19:20;-4.20;28.80
24217;DHT22;12356;49.386;8.688;2022-12-18T06:21:51;-4.10;28.80
24217;DHT22;12356;49.386;8.688;2022-12-18T06:24:21;-4.10;28.20
24217;DHT22;12356;49.386;8.688;2022-12-18T06:26:52;-4.00;28.10
24217;DHT22;12356;49.386;8.688;2022-12-18T06:29:23;-4.00;27.00
24217;DHT22;12356;49.386;8.688;2022-12-18T06:31:53;-4.00;26.50
24217;DHT22;12356;49.386;8.688;2022-12-18T06:34:24;-4.10;26.20
24217;DHT22;12356;49.386;8.688;2022-12-18T06:36:55;-4.20;25.70
24217;DHT22;12356;49.386;8.688;2022-12-18T06:39:27;-4.20;26.40
24217;DHT22;12356;49.386;8.688;2022-12-18T06:41:58;-4.20;25.20
24217;DHT22;12356;49.386;8.688;2022-12-18T06:44:29;-4.30;25.00
24217;DHT22;12356;49.386;8.688;2022-12-18T06:46:59;-4.40;24.80
24217;DHT22;12356;49.386;8.688;2022-12-18T06:49:30;-4.50;24.60
24217;DHT22;12356;49.386;8.688;2022-12-18T06:52:01;-4.50;24.80
24217;DHT22;12356;49.386;8.688;2022-12-18T06:54:31;-4.60;24.40
24217;DHT22;12356;49.386;8.688;2022-12-18T06:57:02;-4.60;24.50
24217;DHT22;12356;49.386;8.688;2022-12-18T06:59:33;-4.60;24.60
24217;DHT22;12356;49.386;8.688;2022-12-18T07:02:03;-4.60;24.40
24217;DHT22;12356;49.386;8.688;2022-12-18T07:04:34;-4.60;24.40
24217;DHT22;12356;49.386;8.688;2022-12-18T07:07:05;-4.50;24.60
24217;DHT22;12356;49.386;8.688;2022-12-18T07:09:36;-4.60;24.10
24217;DHT22;12356;49.386;8.688;2022-12-18T07:12:07;-4.80;24.80
24217;DHT22;12356;49.386;8.688;2022-12-18T07:14:38;-4.80;25.30
24217;DHT22;12356;49.386;8.688;2022-12-18T07:17:09;-4.80;25.70
24217;DHT22;12356;49.386;8.688;2022-12-18T07:19:39;-4.80;26.00
24217;DHT22;12356;49.386;8.688;2022-12-18T07:22:10;-4.80;26.70
24217;DHT22;12356;49.386;8.688;2022-12-18T07:24:40;-4.80;26.90
24217;DHT22;12356;49.386;8.688;2022-12-18T07:27:11;-4.70;27.10
24217;DHT22;12356;49.386;8.688;2022-12-18T07:29:42;-4.70;27.00
24217;DHT22;12356;49.386;8.688;2022-12-18T07:32:12;-4.60;26.70
24217;DHT22;12356;49.386;8.688;2022-12-18T07:34:43;-4.50;26.40
24217;DHT22;12356;49.386;8.688;2022-12-18T07:37:14;-4.40;26.30
24217;DHT22;12356;49.386;8.688;2022-12-18T07:39:44;-4.50;25.40
24217;DHT22;12356;49.386;8.688;2022-12-18T07:42:15;-4.50;25.70
24217;DHT22;12356;49.386;8.688;2022-12-18T07:45:01;-4.60;25.80
24217;DHT22;12356;49.386;8.688;2022-12-18T07:47:34;-4.60;26.10
24217;DHT22;12356;49.386;8.688;2022-12-18T07:50:06;-4.60;26.10
24217;DHT22;12356;49.386;8.688;2022-12-18T07:52:37;-4.70;26.00
24217;DHT22;12356;49.386;8.688;2022-12-18T07:55:08;-4.60;26.10
24217;DHT22;12356;49.386;8.688;2022-12-18T07:57:38;-4.60;26.10
24217;DHT22;12356;49.386;8.688;2022-12-18T08:00:10;-4.60;26.10
24217;DHT22;12356;49.386;8.688;2022-12-18T08:02:40;-4.70;26.10
24217;DHT22;12356;49.386;8.688;2022-12-18T08:05:11;-4.70;26.00
24217;DHT22;12356;49.386;8.688;2022-12-18T08:07:42;-4.70;26.10
24217;DHT22;12356;49.386;8.688;2022-12-18T08:10:13;-4.60;26.10
24217;DHT22;12356;49.386;8.688;2022-12-18T08:12:43;-4.60;26.10
24217;DHT22;12356;49.386;8.688;2022-12-18T08:15:14;-4.60;26.10
24217;DHT22;12356;49.386;8.688;2022-12-18T08:17:45;-4.60;26.70
24217;DHT22;12356;49.386;8.688;2022-12-18T08:20:15;-4.60;26.80
24217;DHT22;12356;49.386;8.688;2022-12-18T08:22:47;-4.60;27.00
24217;DHT22;12356;49.386;8.688;2022-12-18T08:25:18;-4.70;27.50
24217;DHT22;12356;49.386;8.688;2022-12-18T08:27:48;-4.60;28.00
24217;DHT22;12356;49.386;8.688;2022-12-18T08:30:19;-4.40;28.50
24217;DHT22;12356;49.386;8.688;2022-12-18T08:32:51;-4.30;28.80
24217;DHT22;12356;49.386;8.688;2022-12-18T08:35:23;-4.20;28.90
24217;DHT22;12356;49.386;8.688;2022-12-18T08:37:54;-4.10;28.60
24217;DHT22;12356;49.386;8.688;2022-12-18T08:40:24;-4.00;29.10
24217;DHT22;12356;49.386;8.688;2022-12-18T08:42:55;-3.80;29.20
24217;DHT22;12356;49.386;8.688;2022-12-18T08:45:44;-3.70;29.60
24217;DHT22;12356;49.386;8.688;2022-12-18T08:48:15;-3.60;29.70
24217;DHT22;12356;49.386;8.688;2022-12-18T08:50:58;-3.50;29.90
24217;DHT22;12356;49.386;8.688;2022-12-18T08:53:29;-3.40;30.00
24217;DHT22;12356;49.386;8.688;2022-12-18T08:56:00;-3.20;29.80
24217;DHT22;12356;49.386;8.688;2022-12-18T08:58:30;-3.20;29.30
24217;DHT22;12356;49.386;8.688;2022-12-18T09:01:06;-3.20;29.20
24217;DHT22;12356;49.386;8.688;2022-12-18T09:03:38;-3.20;29.10
24217;DHT22;12356;49.386;8.688;2022-12-18T09:06:08;-3.00;29.90
24217;DHT22;12356;49.386;8.688;2022-12-18T09:08:39;-3.00;30.00
24217;DHT22;12356;49.386;8.688;2022-12-18T09:11:15;-2.80;30.00
24217;DHT22;12356;49.386;8.688;2022-12-18T09:13:49;-2.80;30.30
24217;DHT22;12356;49.386;8.688;2022-12-18T09:16:21;-2.60;31.00
24217;DHT22;12356;49.386;8.688;2022-12-18T09:18:52;-2.60;30.50
24217;DHT22;12356;49.386;8.688;2022-12-18T09:21:31;-2.50;30.20
24217;DHT22;12356;49.386;8.688;2022-12-18T09:24:03;-2.50;29.70
24217;DHT22;12356;49.386;8.688;2022-12-18T09:26:33;-2.40;29.10
24217;DHT22;12356;49.386;8.688;2022-12-18T09:29:04;-2.30;29.20
24217;DHT22;12356;49.386;8.688;2022-12-18T09:31:35;-2.20;29.10
24217;DHT22;12356;49.386;8.688;2022-12-18T09:34:06;-2.20;29.80
24217;DHT22;12356;49.386;8.688;2022-12-18T09:36:38;-2.30;26.70
24217;DHT22;12356;49.386;8.688;2022-12-18T09:39:08;-2.20;26.10
24217;DHT22;12356;49.386;8.688;2022-12-18T09:41:46;-2.20;26.40
24217;DHT22;12356;49.386;8.688;2022-12-18T09:44:44;-2.10;27.50
24217;DHT22;12356;49.386;8.688;2022-12-18T09:47:22;-2.00;27.50
24217;DHT22;12356;49.386;8.688;2022-12-18T09:50:00;-2.00;26.90
24217;DHT22;12356;49.386;8.688;2022-12-18T09:52:39;-1.90;25.20
24217;DHT22;12356;49.386;8.688;2022-12-18T10:00:40;-1.70;25.60
24217;DHT22;12356;49.386;8.688;2022-12-18T10:03:13;-1.70;25.80
24217;DHT22;12356;49.386;8.688;2022-12-18T10:08:59;-1.50;25.00
24217;DHT22;12356;49.386;8.688;2022-12-18T10:11:38;-1.50;24.30
24217;DHT22;12356;49.386;8.688;2022-12-18T10:25:28;-1.40;24.50
24217;DHT22;12356;49.386;8.688;2022-12-18T10:28:12;-1.30;23.70
24217;DHT22;12356;49.386;8.688;2022-12-18T10:30:43;-1.20;22.90
24217;DHT22;12356;49.386;8.688;2022-12-18T10:33:20;-1.20;22.40
24217;DHT22;12356;49.386;8.688;2022-12-18T10:35:51;-1.10;21.80
24217;DHT22;12356;49.386;8.688;2022-12-18T10:38:27;-1.10;22.10
24217;DHT22;12356;49.386;8.688;2022-12-18T10:41:06;-1.10;22.90
24217;DHT22;12356;49.386;8.688;2022-12-18T10:43:44;-1.00;23.30
24217;DHT22;12356;49.386;8.688;2022-12-18T10:46:20;-1.00;22.10
24217;DHT22;12356;49.386;8.688;2022-12-18T10:48:55;-1.00;21.10
24217;DHT22;12356;49.386;8.688;2022-12-18T10:51:29;-0.90;21.80
24217;DHT22;12356;49.386;8.688;2022-12-18T10:56:36;-0.80;20.90
24217;DHT22;12356;49.386;8.688;2022-12-18T10:59:10;-0.70;20.80
24217;DHT22;12356;49.386;8.688;2022-12-18T11:04:26;-0.70;20.00
24217;DHT22;12356;49.386;8.688;2022-12-18T11:12:17;-0.80;19.70
24217;DHT22;12356;49.386;8.688;2022-12-18T11:14:53;-0.70;19.80
24217;DHT22;12356;49.386;8.688;2022-12-18T11:20:06;-0.60;20.20
24217;DHT22;12356;49.386;8.688;2022-12-18T11:22:38;-0.60;20.30
24217;DHT22;12356;49.386;8.688;2022-12-18T11:28:06;-0.60;20.30
24217;DHT22;12356;49.386;8.688;2022-12-18T11:30:40;-0.50;20.20
24217;DHT22;12356;49.386;8.688;2022-12-18T11:33:19;-0.60;19.70
24217;DHT22;12356;49.386;8.688;2022-12-18T11:35:57;-0.50;20.10
24217;DHT22;12356;49.386;8.688;2022-12-18T11:38:33;-0.50;19.60
24217;DHT22;12356;49.386;8.688;2022-12-18T11:43:54;-0.50;19.60
24217;DHT22;12356;49.386;8.688;2022-12-18T11:46:39;-0.50;19.90
24217;DHT22;12356;49.386;8.688;2022-12-18T11:49:34;-0.50;19.40
24217;DHT22;12356;49.386;8.688;2022-12-18T11:54:45;-0.40;18.90
24217;DHT22;12356;49.386;8.688;2022-12-18T12:00:20;-0.40;19.30
24217;DHT22;12356;49.386;8.688;2022-12-18T12:06:10;-0.40;17.90
24217;DHT22;12356;49.386;8.688;2022-12-18T12:14:40;-0.30;18.30
24217;DHT22;12356;49.386;8.688;2022-12-18T12:17:14;-0.20;18.80
24217;DHT22;12356;49.386;8.688;2022-12-18T12:22:45;-0.10;18.60
24217;DHT22;12356;49.386;8.688;2022-12-18T12:25:44;-0.20;18.40
24217;DHT22;12356;49.386;8.688;2022-12-18T12:34:18;-0.10;17.70
24217;DHT22;12356;49.386;8.688;2022-12-18T12:39:37;-0.10;17.70
24217;DHT22;12356;49.386;8.688;2022-12-18T12:42:20;-0.10;17.70
24217;DHT22;12356;49.386;8.688;2022-12-18T12:45:19;-0.10;17.30
24217;DHT22;12356;49.386;8.688;2022-12-18T12:47:51;-0.10;17.70
24217;DHT22;12356;49.386;8.688;2022-12-18T12:50:23;-0.10;18.30
24217;DHT22;12356;49.386;8.688;2022-12-18T12:52:55;-0.10;17.70
24217;DHT22;12356;49.386;8.688;2022-12-18T12:55:28;-0.10;17.80
24217;DHT22;12356;49.386;8.688;2022-12-18T13:00:51;0.00;18.50
24217;DHT22;12356;49.386;8.688;2022-12-18T13:03:46;0.00;18.00
24217;DHT22;12356;49.386;8.688;2022-12-18T13:09:14;0.00;16.70
24217;DHT22;12356;49.386;8.688;2022-12-18T13:11:46;0.10;17.70
24217;DHT22;12356;49.386;8.688;2022-12-18T13:15:21;0.00;17.80
24217;DHT22;12356;49.386;8.688;2022-12-18T13:18:23;0.10;18.00
24217;DHT22;12356;49.386;8.688;2022-12-18T13:36:46;0.20;17.90
24217;DHT22;12356;49.386;8.688;2022-12-18T13:39:21;0.20;17.90
24217;DHT22;12356;49.386;8.688;2022-12-18T13:45:39;0.20;17.90
24217;DHT22;12356;49.386;8.688;2022-12-18T13:48:16;0.20;17.20
24217;DHT22;12356;49.386;8.688;2022-12-18T13:50:53;0.20;17.20
24217;DHT22;12356;49.386;8.688;2022-12-18T13:53:33;0.20;17.50
24217;DHT22;12356;49.386;8.688;2022-12-18T13:56:05;0.20;17.90
24217;DHT22;12356;49.386;8.688;2022-12-18T13:58:36;0.20;17.90
24217;DHT22;12356;49.386;8.688;2022-12-18T14:01:21;0.20;17.90
24217;DHT22;12356;49.386;8.688;2022-12-18T14:04:09;0.20;17.90
24217;DHT22;12356;49.386;8.688;2022-12-18T14:06:40;0.20;17.90
24217;DHT22;12356;49.386;8.688;2022-12-18T14:09:15;0.20;18.10
24217;DHT22;12356;49.386;8.688;2022-12-18T14:11:51;0.30;18.00
24217;DHT22;12356;49.386;8.688;2022-12-18T14:14:22;0.30;18.00
24217;DHT22;12356;49.386;8.688;2022-12-18T14:16:53;0.30;18.00
24217;DHT22;12356;49.386;8.688;2022-12-18T14:19:24;0.30;17.50
24217;DHT22;12356;49.386;8.688;2022-12-18T14:21:55;0.30;17.90
24217;DHT22;12356;49.386;8.688;2022-12-18T14:24:26;0.30;17.90
24217;DHT22;12356;49.386;8.688;2022-12-18T14:27:22;0.30;18.00
24217;DHT22;12356;49.386;8.688;2022-12-18T14:29:53;0.30;18.00
24217;DHT22;12356;49.386;8.688;2022-12-18T14:32:23;0.30;18.00
24217;DHT22;12356;49.386;8.688;2022-12-18T14:34:54;0.30;18.00
24217;DHT22;12356;49.386;8.688;2022-12-18T14:37:26;0.30;18.00
24217;DHT22;12356;49.386;8.688;2022-12-18T14:39:59;0.30;18.00
24217;DHT22;12356;49.386;8.688;2022-12-18T14:42:30;0.30;18.00
24217;DHT22;12356;49.386;8.688;2022-12-18T14:48:25;0.40;18.20
24217;DHT22;12356;49.386;8.688;2022-12-18T14:51:17;0.40;17.70
24217;DHT22;12356;49.386;8.688;2022-12-18T14:56:25;0.30;17.90
24217;DHT22;12356;49.386;8.688;2022-12-18T14:58:57;0.30;18.00
24217;DHT22;12356;49.386;8.688;2022-12-18T15:04:01;0.20;18.10
24217;DHT22;12356;49.386;8.688;2022-12-18T15:06:35;0.30;18.60
24217;DHT22;12356;49.386;8.688;2022-12-18T15:09:22;0.30;18.00
24217;DHT22;12356;49.386;8.688;2022-12-18T15:11:58;0.30;18.00
24217;DHT22;12356;49.386;8.688;2022-12-18T15:14:30;0.30;18.00
24217;DHT22;12356;49.386;8.688;2022-12-18T15:17:05;0.30;18.00
24217;DHT22;12356;49.386;8.688;2022-12-18T15:19:41;0.30;18.20
24217;DHT22;12356;49.386;8.688;2022-12-18T15:22:25;0.30;18.00
24217;DHT22;12356;49.386;8.688;2022-12-18T15:24:58;0.30;18.00
24217;DHT22;12356;49.386;8.688;2022-12-18T15:27:34;0.30;18.10
24217;DHT22;12356;49.386;8.688;2022-12-18T15:32:40;0.20;18.20
24217;DHT22;12356;49.386;8.688;2022-12-18T15:37:41;0.30;19.00
24217;DHT22;12356;49.386;8.688;2022-12-18T15:40:14;0.20;18.70
24217;DHT22;12356;49.386;8.688;2022-12-18T15:42:46;0.20;18.60
24217;DHT22;12356;49.386;8.688;2022-12-18T15:45:36;0.30;19.10
24217;DHT22;12356;49.386;8.688;2022-12-18T15:48:22;0.30;18.80
24217;DHT22;12356;49.386;8.688;2022-12-18T15:50:54;0.30;19.30
24217;DHT22;12356;49.386;8.688;2022-12-18T15:53:33;0.30;19.20
24217;DHT22;12356;49.386;8.688;2022-12-18T15:56:07;0.30;18.60
24217;DHT22;12356;49.386;8.688;2022-12-18T15:58:58;0.30;19.20
24217;DHT22;12356;49.386;8.688;2022-12-18T16:01:30;0.40;19.20
24217;DHT22;12356;49.386;8.688;2022-12-18T16:04:01;0.40;19.20
24217;DHT22;12356;49.386;8.688;2022-12-18T16:06:32;0.40;19.10
24217;DHT22;12356;49.386;8.688;2022-12-18T16:09:03;0.40;18.90
24217;DHT22;12356;49.386;8.688;2022-12-18T16:11:35;0.40;19.00
24217;DHT22;12356;49.386;8.688;2022-12-18T16:14:42;0.40;18.70
24217;DHT22;12356;49.386;8.688;2022-12-18T16:17:13;0.40;19.40
24217;DHT22;12356;49.386;8.688;2022-12-18T16:19:44;0.30;19.00
24217;DHT22;12356;49.386;8.688;2022-12-18T16:22:23;0.30;19.60
24217;DHT22;12356;49.386;8.688;2022-12-18T16:24:55;0.30;19.60
24217;DHT22;12356;49.386;8.688;2022-12-18T16:27:26;0.40;19.30
24217;DHT22;12356;49.386;8.688;2022-12-18T16:29:56;0.40;19.20
24217;DHT22;12356;49.386;8.688;2022-12-18T16:32:27;0.40;19.40
24217;DHT22;12356;49.386;8.688;2022-12-18T16:34:59;0.50;19.50
24217;DHT22;12356;49.386;8.688;2022-12-18T16:37:30;0.40;18.80
24217;DHT22;12356;49.386;8.688;2022-12-18T16:40:01;0.40;19.70
24217;DHT22;12356;49.386;8.688;2022-12-18T16:42:31;0.40;20.10
24217;DHT22;12356;49.386;8.688;2022-12-18T16:45:03;0.50;20.40
24217;DHT22;12356;49.386;8.688;2022-12-18T16:47:34;0.50;20.60
24217;DHT22;12356;49.386;8.688;2022-12-18T16:50:05;0.60;20.10
24217;DHT22;12356;49.386;8.688;2022-12-18T16:52:37;0.60;19.80
24217;DHT22;12356;49.386;8.688;2022-12-18T16:55:08;0.60;19.90
24217;DHT22;12356;49.386;8.688;2022-12-18T16:57:39;0.60;19.30
24217;DHT22;12356;49.386;8.688;2022-12-18T17:00:10;0.50;19.10
24217;DHT22;12356;49.386;8.688;2022-12-18T17:02:41;0.50;18.90
24217;DHT22;12356;49.386;8.688;2022-12-18T17:05:11;0.60;19.40
24217;DHT22;12356;49.386;8.688;2022-12-18T17:07:42;0.50;19.30
24217;DHT22;12356;49.386;8.688;2022-12-18T17:10:13;0.50;19.40
24217;DHT22;12356;49.386;8.688;2022-12-18T17:12:43;0.50;19.70
24217;DHT22;12356;49.386;8.688;2022-12-18T17:15:14;0.50;19.60
24217;DHT22;12356;49.386;8.688;2022-12-18T17:17:45;0.50;19.70
24217;DHT22;12356;49.386;8.688;2022-12-18T17:20:15;0.40;19.80
24217;DHT22;12356;49.386;8.688;2022-12-18T17:22:46;0.50;20.20
24217;DHT22;12356;49.386;8.688;2022-12-18T17:25:16;0.60;19.90
24217;DHT22;12356;49.386;8.688;2022-12-18T17:27:49;0.60;20.10
24217;DHT22;12356;49.386;8.688;2022-12-18T17:30:20;0.70;20.40
24217;DHT22;12356;49.386;8.688;2022-12-18T17:32:51;0.60;19.80
24217;DHT22;12356;49.386;8.688;2022-12-18T17:35:21;0.60;19.70
24217;DHT22;12356;49.386;8.688;2022-12-18T17:37:52;0.60;20.30
24217;DHT22;12356;49.386;8.688;2022-12-18T17:40:22;0.60;20.80
24217;DHT22;12356;49.386;8.688;2022-12-18T17:42:53;0.60;20.70
24217;DHT22;12356;49.386;8.688;2022-12-18T17:45:24;0.50;20.40
24217;DHT22;12356;49.386;8.688;2022-12-18T17:47:54;0.50;21.10
24217;DHT22;12356;49.386;8.688;2022-12-18T17:50:25;0.50;20.70
24217;DHT22;12356;49.386;8.688;2022-12-18T17:52:56;0.40;20.50
24217;DHT22;12356;49.386;8.688;2022-12-18T17:55:28;0.40;20.50
24217;DHT22;12356;49.386;8.688;2022-12-18T17:57:58;0.40;21.10
24217;DHT22;12356;49.386;8.688;2022-12-18T18:00:29;0.40;20.60
24217;DHT22;12356;49.386;8.688;2022-12-18T18:03:00;0.40;20.50
24217;DHT22;12356;49.386;8.688;2022-12-18T18:05:31;0.40;21.00
24217;DHT22;12356;49.386;8.688;2022-12-18T18:08:01;0.50;21.40
24217;DHT22;12356;49.386;8.688;2022-12-18T18:10:35;0.50;21.50
24217;DHT22;12356;49.386;8.688;2022-12-18T18:13:21;0.50;21.60
24217;DHT22;12356;49.386;8.688;2022-12-18T18:16:11;0.60;21.50
24217;DHT22;12356;49.386;8.688;2022-12-18T18:18:41;0.60;20.90
24217;DHT22;12356;49.386;8.688;2022-12-18T18:21:12;0.60;20.80
24217;DHT22;12356;49.386;8.688;2022-12-18T18:23:43;0.60;20.30
24217;DHT22;12356;49.386;8.688;2022-12-18T18:26:14;0.60;20.10
24217;DHT22;12356;49.386;8.688;2022-12-18T18:28:44;0.60;20.70